createdAt,value
2023-01-08T00:00:04.199Z,0.02
2023-01-08T00:04:36.001Z,0.03
2023-01-08T00:15:00.474Z,0.02
2023-01-08T00:19:50.623Z,0.03
2023-01-08T00:24:46.593Z,0.02
2023-01-08T00:54:27.927Z,0.03
2023-01-08T00:56:53.269Z,0.02
2023-01-08T01:13:31.893Z,0.03
2023-01-08T01:23:40.920Z,0.04
2023-01-08T01:26:24.743Z,0.03
2023-01-08T01:36:01.414Z,0.04
2023-01-08T01:43:07.017Z,0.03
2023-01-08T01:53:27.067Z,0.04
2023-01-08T01:55:27.001Z,0.03
2023-01-08T02:03:09.384Z,0.04
2023-01-08T02:13:16.275Z,0.03
2023-01-08T02:15:28.335Z,0.04
2023-01-08T02:17:26.533Z,0.03
2023-01-08T02:20:12.903Z,0.04
2023-01-08T02:22:45.313Z,0.03
2023-01-08T02:55:16.122Z,0.04
2023-01-08T02:59:47.706Z,0.03
2023-01-08T03:19:57.779Z,0.04
2023-01-08T03:25:00.114Z,0.03
2023-01-08T03:39:41.295Z,0.02
2023-01-08T03:44:05.603Z,0.03
2023-01-08T03:54:15.633Z,0.02
2023-01-08T03:58:58.618Z,0.03
2023-01-08T04:01:30.178Z,0.02
2023-01-08T04:15:53.462Z,0.03
2023-01-08T04:18:51.493Z,0.02
2023-01-08T04:26:20.669Z,0.03
2023-01-08T04:33:48.129Z,0.02
2023-01-08T04:46:24.255Z,0.03
2023-01-08T04:53:26.469Z,0.04
2023-01-08T05:03:20.814Z,0.03
2023-01-08T05:06:00.997Z,0.04
2023-01-08T05:25:12.257Z,0.03
2023-01-08T05:27:50.916Z,0.04
2023-01-08T05:35:24.802Z,0.03
2023-01-08T05:44:59.135Z,0.04
2023-01-08T05:47:49.748Z,0.03
2023-01-08T05:57:55.128Z,0.02
2023-01-08T06:00:38.061Z,0.03
2023-01-08T06:03:06.870Z,0.02
2023-01-08T06:12:46.365Z,0.03
2023-01-08T06:15:07.314Z,0.02
2023-01-08T06:25:17.512Z,0.03
2023-01-08T06:34:49.439Z,0.04
2023-01-08T06:37:08.600Z,0.05
2023-01-08T06:42:06.576Z,0.06
2023-01-08T06:44:46.003Z,0.09
2023-01-08T06:47:11.298Z,0.13
2023-01-08T06:49:22.476Z,0.18
2023-01-08T06:51:19.696Z,0.26
2023-01-08T06:54:05.941Z,0.33
2023-01-08T06:56:48.956Z,0.38
2023-01-08T06:58:53.921Z,0.47
2023-01-08T07:00:57.295Z,0.66
2023-01-08T07:03:49.002Z,1.01
2023-01-08T07:06:26.501Z,2.22
2023-01-08T07:08:50.025Z,3.56
2023-01-08T07:10:59.491Z,4.65
2023-01-08T07:13:57.315Z,6.39
2023-01-08T07:16:41.226Z,8.82
2023-01-08T07:19:10.951Z,14.44
2023-01-08T07:21:26.484Z,17.58
2023-01-08T07:23:28.006Z,21.42
2023-01-08T07:26:17.924Z,26.39
2023-01-08T07:28:53.692Z,27.82
2023-01-08T07:31:15.062Z,32.67
2023-01-08T07:33:22.682Z,32.9
2023-01-08T07:36:18.772Z,33.37
2023-01-08T07:39:00.690Z,33.22
2023-01-08T07:41:28.692Z,41.34
2023-01-08T07:43:42.562Z,54.68
2023-01-08T07:45:42.210Z,62.84
2023-01-08T07:48:30.484Z,69.1
2023-01-08T07:51:04.659Z,95.6
2023-01-08T07:53:24.676Z,129.32
2023-01-08T07:55:30.777Z,127.52
2023-01-08T07:58:25.188Z,160.08
2023-01-08T08:01:05.552Z,190
2023-01-08T08:03:31.607Z,228.5
2023-01-08T08:05:43.759Z,274
2023-01-08T08:07:41.675Z,344.6
2023-01-08T08:10:27.961Z,380.1
2023-01-08T08:13:00.302Z,358.7
2023-01-08T08:15:18.528Z,316.8
2023-01-08T08:17:22.599Z,312.2
2023-01-08T08:20:15.337Z,227
2023-01-08T08:22:53.528Z,244.1
2023-01-08T08:25:17.961Z,287
2023-01-08T08:27:28.412Z,249.1
2023-01-08T08:30:27.229Z,233
2023-01-08T08:33:11.841Z,192.8
2023-01-08T08:35:42.268Z,160.92
2023-01-08T08:37:58.803Z,152.56
2023-01-08T08:40:01.171Z,146.32
2023-01-08T08:42:51.951Z,138.76
2023-01-08T08:45:28.743Z,133.08
2023-01-08T08:47:51.372Z,122.2
2023-01-08T08:49:59.854Z,138.56
2023-01-08T08:52:57.013Z,157.16
2023-01-08T08:55:39.939Z,165.6
2023-01-08T08:58:08.642Z,185
2023-01-08T09:00:23.222Z,188
2023-01-08T09:02:23.964Z,181.8
2023-01-08T09:05:12.866Z,165.3
2023-01-08T09:07:47.743Z,189.9
2023-01-08T09:10:08.685Z,206.8
2023-01-08T09:12:15.460Z,231.9
2023-01-08T09:15:10.248Z,233.5
2023-01-08T09:17:51.465Z,222
2023-01-08T09:20:18.583Z,220
2023-01-08T09:22:31.515Z,231.6
2023-01-08T09:24:30.496Z,235.2
2023-01-08T09:27:17.783Z,230
2023-01-08T09:29:31.894Z,282.8
2023-01-08T09:31:31.951Z,304.5
2023-01-08T09:34:20.195Z,275.5
2023-01-08T09:36:54.523Z,345.1
2023-01-08T09:39:14.739Z,373.9
2023-01-08T09:41:20.740Z,439.5
2023-01-08T09:44:15.390Z,471.3
2023-01-08T09:46:55.935Z,494.5
2023-01-08T09:49:22.210Z,524.1
2023-01-08T09:51:34.533Z,516.6
2023-01-08T09:53:32.765Z,573.2
2023-01-08T09:56:19.295Z,623.5
2023-01-08T09:58:51.674Z,617.2
2023-01-08T10:01:10.276Z,522.2
2023-01-08T10:03:14.487Z,507.6
2023-01-08T10:06:06.749Z,553.6
2023-01-08T10:11:10.101Z,510.4
2023-01-08T10:13:20.516Z,445.2
2023-01-08T10:16:19.510Z,437.6
2023-01-08T10:19:04.333Z,544.8
2023-01-08T10:21:35.001Z,628.8
2023-01-08T10:23:51.471Z,634.7
2023-01-08T10:25:54.264Z,539
2023-01-08T10:28:44.938Z,492.6
2023-01-08T10:31:21.736Z,515.2
2023-01-08T10:33:44.447Z,531.5
2023-01-08T10:35:53.021Z,584.6
2023-01-08T10:38:50.026Z,578
2023-01-08T10:41:33.094Z,568.4
2023-01-08T10:44:02.062Z,656
2023-01-08T10:46:16.881Z,755.8
2023-01-08T10:48:17.784Z,754.5
2023-01-08T10:51:07.119Z,677.4
2023-01-08T10:53:42.019Z,669.1
2023-01-08T10:56:02.939Z,976.3
2023-01-08T10:58:09.447Z,1215.6
2023-01-08T11:01:04.730Z,1258.2
2023-01-08T11:03:45.837Z,1320.3
2023-01-08T11:06:13.007Z,1320.9
2023-01-08T11:08:26.047Z,1209.6
2023-01-08T11:10:24.893Z,1143
2023-01-08T11:13:12.335Z,1072.3
2023-01-08T11:15:45.629Z,1080.6
2023-01-08T11:18:04.787Z,1113.2
2023-01-08T11:20:10.055Z,1050.5
2023-01-08T11:23:03.572Z,1786
2023-01-08T11:25:42.956Z,1807
2023-01-08T11:28:08.215Z,1528.9
2023-01-08T11:30:19.609Z,1369.6
2023-01-08T11:32:16.749Z,1093.4
2023-01-08T11:35:02.505Z,1038.4
2023-01-08T11:37:34.108Z,947.2
2023-01-08T11:39:51.619Z,853.4
2023-01-08T11:41:54.921Z,862
2023-01-08T11:44:46.853Z,854.7
2023-01-08T11:47:24.594Z,767.6
2023-01-08T11:49:47.781Z,928
2023-01-08T11:51:57.426Z,955.8
2023-01-08T11:54:55.499Z,966.4
2023-01-08T11:57:39.356Z,1041.6
2023-01-08T12:00:09.104Z,1022
2023-01-08T12:02:25.023Z,1064
2023-01-08T12:04:26.323Z,1076.8
2023-01-08T12:07:16.340Z,1096
2023-01-08T12:09:52.316Z,1103
2023-01-08T12:12:15.085Z,1133.4
2023-01-08T12:14:21.923Z,1236.8
2023-01-08T12:17:18.241Z,1207.3
2023-01-08T12:20:00.345Z,1094.7
2023-01-08T12:22:28.289Z,1019.8
2023-01-08T12:24:42.125Z,874.5
2023-01-08T12:26:41.990Z,884.4
2023-01-08T12:29:30.239Z,769.6
2023-01-08T12:32:06.542Z,792.9
2023-01-08T12:34:24.329Z,839.3
2023-01-08T12:36:30.232Z,806
2023-01-08T12:39:24.501Z,728.6
2023-01-08T12:42:04.599Z,414.4
2023-01-08T12:44:30.883Z,602.7
2023-01-08T12:46:42.938Z,684.4
2023-01-08T12:48:41.146Z,902
2023-01-08T12:51:27.742Z,1028.1
2023-01-08T12:54:00.179Z,1020.1
2023-01-08T12:56:18.378Z,1071.3
2023-01-08T12:58:22.676Z,1128.9
2023-01-08T13:01:15.495Z,1076.1
2023-01-08T13:03:53.830Z,1058.5
2023-01-08T13:06:18.408Z,943.3
2023-01-08T13:08:28.791Z,681.9
2023-01-08T13:11:27.608Z,555.6
2023-01-08T13:14:12.496Z,528.9
2023-01-08T13:16:43.425Z,363.3
2023-01-08T13:19:00.125Z,398.4
2023-01-08T13:21:02.815Z,577.9
2023-01-08T13:23:53.828Z,640
2023-01-08T13:26:30.692Z,813.7
2023-01-08T13:28:53.368Z,545.2
2023-01-08T13:31:02.100Z,408.8
2023-01-08T13:33:58.824Z,526.4
2023-01-08T13:36:41.669Z,475.2
2023-01-08T13:39:10.757Z,413.4
2023-01-08T13:41:25.606Z,638.7
2023-01-08T13:43:26.262Z,572.8
2023-01-08T13:46:15.639Z,312
2023-01-08T13:48:50.712Z,389.7
2023-01-08T13:51:11.432Z,162.6
2023-01-08T13:53:18.436Z,157.08
2023-01-08T13:56:13.960Z,245.7
2023-01-08T13:58:55.158Z,146.24
2023-01-08T14:01:22.374Z,135.8
2023-01-08T14:03:35.892Z,219.7
2023-01-08T14:05:34.338Z,260.7
2023-01-08T14:08:21.640Z,273.2
2023-01-08T14:10:55.003Z,339.3
2023-01-08T14:13:14.207Z,305.7
2023-01-08T14:15:19.283Z,488.4
2023-01-08T14:18:12.989Z,502.4
2023-01-08T14:20:52.539Z,562
2023-01-08T14:23:17.960Z,557.6
2023-01-08T14:25:28.918Z,604.3
2023-01-08T14:27:26.095Z,515.8
2023-01-08T14:30:11.702Z,452.6
2023-01-08T14:32:43.196Z,433.9
2023-01-08T14:35:00.702Z,374.5
2023-01-08T14:37:04.142Z,366.2
2023-01-08T14:39:55.862Z,395.3
2023-01-08T14:42:33.798Z,437.2
2023-01-08T14:44:57.478Z,427.5
2023-01-08T14:47:06.912Z,468.4
2023-01-08T14:50:05.107Z,412.1
2023-01-08T14:52:49.028Z,432.1
2023-01-08T14:55:18.909Z,482.8
2023-01-08T14:57:34.592Z,423.2
2023-01-08T14:59:36.251Z,344
2023-01-08T15:02:26.465Z,299.1
2023-01-08T15:05:02.296Z,301.7
2023-01-08T15:07:24.265Z,257.5
2023-01-08T15:09:32.081Z,253.4
2023-01-08T15:12:28.197Z,236.1
2023-01-08T15:15:10.492Z,258
2023-01-08T15:17:38.193Z,264.9
2023-01-08T15:19:52.067Z,212.8
2023-01-08T15:21:52.095Z,182.2
2023-01-08T15:24:40.385Z,159.52
2023-01-08T15:27:14.589Z,136.28
2023-01-08T15:29:34.583Z,110.08
2023-01-08T15:31:40.680Z,94.6
2023-01-08T15:34:34.981Z,76.04
2023-01-08T15:37:15.222Z,60.48
2023-01-08T15:39:41.433Z,52.7
2023-01-08T15:41:53.513Z,45.08
2023-01-08T15:43:51.600Z,36.1
2023-01-08T15:49:10.530Z,19.16
2023-01-08T15:51:28.658Z,15.27
2023-01-08T15:53:32.916Z,11.21
2023-01-08T15:56:25.602Z,7.87
2023-01-08T15:59:04.088Z,5.5
2023-01-08T16:01:28.495Z,3.77
2023-01-08T16:03:38.832Z,2.63
2023-01-08T16:06:37.590Z,1.48
2023-01-08T16:09:21.738Z,0.93
2023-01-08T16:11:52.450Z,0.62
2023-01-08T16:14:09.008Z,0.43
2023-01-08T16:16:11.388Z,0.33
2023-01-08T16:19:02.301Z,0.23
2023-01-08T16:21:39.110Z,0.31
2023-01-08T16:24:01.784Z,0.13
2023-01-08T16:26:10.573Z,0.11
2023-01-08T16:29:07.523Z,0.09
2023-01-08T16:31:50.462Z,0.08
2023-01-08T16:34:19.151Z,0.07
2023-01-08T16:41:23.900Z,0.06
2023-01-08T16:46:20.126Z,0.05
2023-01-08T17:00:41.833Z,0.04
2023-01-08T17:03:29.093Z,0.05
2023-01-08T17:06:02.113Z,0.04
2023-01-08T17:08:21.334Z,0.05
2023-01-08T17:10:26.301Z,0.04
2023-01-08T17:13:19.702Z,0.07
2023-01-08T17:16:00.018Z,0.09
2023-01-08T17:18:24.418Z,0.07
2023-01-08T17:20:35.552Z,0.05
2023-01-08T17:27:49.761Z,0.06
2023-01-08T17:45:11.246Z,0.05
2023-01-08T17:47:55.232Z,0.06
2023-01-08T17:54:42.028Z,0.07
2023-01-08T17:57:32.134Z,0.06
2023-01-08T18:00:07.992Z,0.05
2023-01-08T18:02:29.666Z,0.06
2023-01-08T18:04:37.313Z,0.05
2023-01-08T18:12:43.308Z,0.04
2023-01-08T18:16:56.821Z,0.05
2023-01-08T18:22:19.340Z,0.04
2023-01-08T18:24:39.210Z,0.05
2023-01-08T18:26:45.233Z,0.04
2023-01-08T18:29:39.524Z,0.05
2023-01-08T18:32:19.733Z,0.04
2023-01-08T18:51:29.089Z,0.05
2023-01-08T18:56:32.082Z,0.06
2023-01-08T19:01:41.410Z,0.07
2023-01-08T19:04:25.973Z,0.06
2023-01-08T19:09:13.026Z,0.07
2023-01-08T19:11:15.338Z,0.06
2023-01-08T19:21:14.106Z,0.05
2023-01-08T19:24:11.254Z,0.06
2023-01-08T19:29:23.088Z,0.05
2023-01-08T19:31:37.847Z,0.06
2023-01-08T20:08:10.253Z,0.05
2023-01-08T20:18:11.745Z,0.04
2023-01-08T20:22:50.591Z,0.05
2023-01-08T20:24:48.870Z,0.07
2023-01-08T20:30:07.619Z,0.05
2023-01-08T20:32:26.125Z,0.06
2023-01-08T20:34:30.489Z,0.04
2023-01-08T20:47:36.352Z,0.03
2023-01-08T21:05:02.164Z,0.04
2023-01-08T21:07:10.911Z,0.03
2023-01-08T21:10:07.944Z,0.04
2023-01-08T21:12:51.114Z,0.03
2023-01-08T21:19:35.457Z,0.04
2023-01-08T21:22:24.851Z,0.03
2023-01-08T21:37:31.915Z,0.04
2023-01-08T21:39:45.141Z,0.05
2023-01-08T21:41:44.149Z,0.04
2023-01-08T21:47:05.247Z,0.03
2023-01-08T21:49:24.573Z,0.04
2023-01-08T21:59:28.827Z,0.03
